sensor_id;sensor_type;location;lat;lon;timestamp;P1;durP1;ratioP1;P2;durP2;ratioP2
21488;SDS011;10906;45.194;5.684;2023-05-24T05:00:17;18.42;;;15.07;;
21488;SDS011;10906;45.194;5.684;2023-05-24T05:03:02;19.20;;;15.15;;
21488;SDS011;10906;45.194;5.684;2023-05-24T05:05:47;20.88;;;14.68;;
21488;SDS011;10906;45.194;5.684;2023-05-24T05:08:33;17.80;;;13.98;;
21488;SDS011;10906;45.194;5.684;2023-05-24T05:11:22;15.95;;;13.70;;
21488;SDS011;10906;45.194;5.684;2023-05-24T05:14:09;19.35;;;14.18;;
21488;SDS011;10906;45.194;5.684;2023-05-24T05:17:03;16.20;;;14.38;;
21488;SDS011;10906;45.194;5.684;2023-05-24T05:19:48;19.13;;;15.38;;
21488;SDS011;10906;45.194;5.684;2023-05-24T05:22:42;16.50;;;13.40;;
21488;SDS011;10906;45.194;5.684;2023-05-24T05:25:30;16.17;;;13.32;;
21488;SDS011;10906;45.194;5.684;2023-05-24T05:28:16;19.77;;;13.65;;
21488;SDS011;10906;45.194;5.684;2023-05-24T05:31:03;16.63;;;13.32;;
21488;SDS011;10906;45.194;5.684;2023-05-24T05:33:47;16.13;;;13.75;;
21488;SDS011;10906;45.194;5.684;2023-05-24T05:36:32;16.92;;;13.13;;
21488;SDS011;10906;45.194;5.684;2023-05-24T05:39:19;15.45;;;13.35;;
21488;SDS011;10906;45.194;5.684;2023-05-24T05:42:04;19.45;;;14.52;;
21488;SDS011;10906;45.194;5.684;2023-05-24T05:44:48;15.85;;;13.52;;
21488;SDS011;10906;45.194;5.684;2023-05-24T05:47:35;22.38;;;14.48;;
21488;SDS011;10906;45.194;5.684;2023-05-24T05:50:20;14.45;;;13.05;;
21488;SDS011;10906;45.194;5.684;2023-05-24T05:53:07;15.73;;;14.07;;
21488;SDS011;10906;45.194;5.684;2023-05-24T05:55:51;14.52;;;12.73;;
21488;SDS011;10906;45.194;5.684;2023-05-24T05:58:38;17.10;;;13.73;;
21488;SDS011;10906;45.194;5.684;2023-05-24T06:01:23;18.52;;;14.35;;
21488;SDS011;10906;45.194;5.684;2023-05-24T06:04:07;17.88;;;13.52;;
21488;SDS011;10906;45.194;5.684;2023-05-24T06:06:53;17.70;;;13.38;;
21488;SDS011;10906;45.194;5.684;2023-05-24T06:09:38;15.35;;;13.65;;
21488;SDS011;10906;45.194;5.684;2023-05-24T06:12:23;17.35;;;14.95;;
21488;SDS011;10906;45.194;5.684;2023-05-24T06:15:10;15.82;;;14.13;;
21488;SDS011;10906;45.194;5.684;2023-05-24T06:17:56;16.85;;;14.82;;
21488;SDS011;10906;45.194;5.684;2023-05-24T06:20:41;16.92;;;14.45;;
21488;SDS011;10906;45.194;5.684;2023-05-24T06:23:27;19.00;;;14.75;;
21488;SDS011;10906;45.194;5.684;2023-05-24T06:26:12;17.33;;;13.70;;
21488;SDS011;10906;45.194;5.684;2023-05-24T06:28:56;18.02;;;14.48;;
21488;SDS011;10906;45.194;5.684;2023-05-24T06:31:41;19.13;;;15.30;;
21488;SDS011;10906;45.194;5.684;2023-05-24T06:34:26;17.10;;;14.48;;
21488;SDS011;10906;45.194;5.684;2023-05-24T06:37:12;18.67;;;14.43;;
21488;SDS011;10906;45.194;5.684;2023-05-24T06:39:59;22.50;;;15.02;;
21488;SDS011;10906;45.194;5.684;2023-05-24T06:42:44;15.77;;;13.88;;
21488;SDS011;10906;45.194;5.684;2023-05-24T06:45:36;18.10;;;13.57;;
21488;SDS011;10906;45.194;5.684;2023-05-24T06:48:23;21.10;;;15.00;;
21488;SDS011;10906;45.194;5.684;2023-05-24T06:51:08;18.50;;;14.98;;
21488;SDS011;10906;45.194;5.684;2023-05-24T06:53:52;20.95;;;14.07;;
21488;SDS011;10906;45.194;5.684;2023-05-24T06:56:42;17.77;;;13.90;;
21488;SDS011;10906;45.194;5.684;2023-05-24T06:59:27;18.75;;;13.90;;
21488;SDS011;10906;45.194;5.684;2023-05-24T07:02:12;17.98;;;14.57;;
21488;SDS011;10906;45.194;5.684;2023-05-24T07:04:57;17.80;;;14.05;;
21488;SDS011;10906;45.194;5.684;2023-05-24T07:07:42;19.63;;;15.85;;
21488;SDS011;10906;45.194;5.684;2023-05-24T07:10:26;22.05;;;15.70;;
21488;SDS011;10906;45.194;5.684;2023-05-24T07:13:11;18.20;;;14.50;;
21488;SDS011;10906;45.194;5.684;2023-05-24T07:15:56;16.63;;;13.55;;
21488;SDS011;10906;45.194;5.684;2023-05-24T07:18:40;16.17;;;13.32;;
21488;SDS011;10906;45.194;5.684;2023-05-24T07:21:25;17.88;;;14.35;;
21488;SDS011;10906;45.194;5.684;2023-05-24T07:24:10;18.63;;;13.50;;
21488;SDS011;10906;45.194;5.684;2023-05-24T07:26:58;16.83;;;15.02;;
21488;SDS011;10906;45.194;5.684;2023-05-24T07:29:42;16.70;;;13.95;;
21488;SDS011;10906;45.194;5.684;2023-05-24T07:32:26;17.98;;;14.73;;
21488;SDS011;10906;45.194;5.684;2023-05-24T07:35:11;21.20;;;12.88;;
21488;SDS011;10906;45.194;5.684;2023-05-24T07:54:02;14.27;;;12.73;;
21488;SDS011;10906;45.194;5.684;2023-05-24T07:56:47;16.00;;;13.38;;
21488;SDS011;10906;45.194;5.684;2023-05-24T07:59:35;17.20;;;13.35;;
21488;SDS011;10906;45.194;5.684;2023-05-24T08:02:22;13.93;;;12.45;;
21488;SDS011;10906;45.194;5.684;2023-05-24T08:05:07;15.00;;;12.80;;
21488;SDS011;10906;45.194;5.684;2023-05-24T08:07:52;15.05;;;12.73;;
21488;SDS011;10906;45.194;5.684;2023-05-24T08:10:37;17.13;;;13.27;;
21488;SDS011;10906;45.194;5.684;2023-05-24T08:13:24;16.80;;;12.98;;
21488;SDS011;10906;45.194;5.684;2023-05-24T08:16:09;14.93;;;13.40;;
21488;SDS011;10906;45.194;5.684;2023-05-24T08:18:54;14.70;;;12.30;;
21488;SDS011;10906;45.194;5.684;2023-05-24T08:21:38;17.73;;;12.93;;
21488;SDS011;10906;45.194;5.684;2023-05-24T08:24:25;14.98;;;13.23;;
21488;SDS011;10906;45.194;5.684;2023-05-24T08:27:09;15.45;;;13.52;;
21488;SDS011;10906;45.194;5.684;2023-05-24T08:29:54;14.02;;;11.93;;
21488;SDS011;10906;45.194;5.684;2023-05-24T08:32:39;15.27;;;13.73;;
21488;SDS011;10906;45.194;5.684;2023-05-24T08:35:24;16.17;;;13.38;;
21488;SDS011;10906;45.194;5.684;2023-05-24T08:38:09;18.77;;;13.48;;
21488;SDS011;10906;45.194;5.684;2023-05-24T08:40:53;14.25;;;12.07;;
21488;SDS011;10906;45.194;5.684;2023-05-24T08:43:38;16.15;;;13.02;;
21488;SDS011;10906;45.194;5.684;2023-05-24T08:46:25;14.63;;;13.00;;
21488;SDS011;10906;45.194;5.684;2023-05-24T08:49:10;14.48;;;12.68;;
21488;SDS011;10906;45.194;5.684;2023-05-24T08:51:56;14.63;;;12.05;;
21488;SDS011;10906;45.194;5.684;2023-05-24T08:54:41;15.55;;;12.32;;
21488;SDS011;10906;45.194;5.684;2023-05-24T08:57:26;15.05;;;12.60;;
21488;SDS011;10906;45.194;5.684;2023-05-24T09:00:11;14.10;;;12.35;;
21488;SDS011;10906;45.194;5.684;2023-05-24T09:02:56;15.55;;;13.80;;
21488;SDS011;10906;45.194;5.684;2023-05-24T09:05:43;11.70;;;10.50;;
21488;SDS011;10906;45.194;5.684;2023-05-24T09:08:28;16.73;;;12.18;;
21488;SDS011;10906;45.194;5.684;2023-05-24T09:11:13;14.48;;;12.15;;
21488;SDS011;10906;45.194;5.684;2023-05-24T09:13:59;16.83;;;12.32;;
21488;SDS011;10906;45.194;5.684;2023-05-24T09:16:44;15.32;;;13.65;;
21488;SDS011;10906;45.194;5.684;2023-05-24T09:19:31;17.35;;;12.15;;
21488;SDS011;10906;45.194;5.684;2023-05-24T09:22:15;14.73;;;12.55;;
21488;SDS011;10906;45.194;5.684;2023-05-24T09:25:06;13.93;;;12.38;;
21488;SDS011;10906;45.194;5.684;2023-05-24T09:27:52;15.10;;;13.10;;
21488;SDS011;10906;45.194;5.684;2023-05-24T09:30:37;15.93;;;11.80;;
21488;SDS011;10906;45.194;5.684;2023-05-24T09:33:21;14.43;;;12.43;;
21488;SDS011;10906;45.194;5.684;2023-05-24T09:36:06;13.85;;;12.35;;
21488;SDS011;10906;45.194;5.684;2023-05-24T09:39:04;14.38;;;12.32;;
21488;SDS011;10906;45.194;5.684;2023-05-24T09:41:52;15.68;;;12.80;;
21488;SDS011;10906;45.194;5.684;2023-05-24T09:44:40;14.68;;;12.75;;
21488;SDS011;10906;45.194;5.684;2023-05-24T09:47:28;13.60;;;12.15;;
21488;SDS011;10906;45.194;5.684;2023-05-24T09:50:14;15.07;;;12.25;;
21488;SDS011;10906;45.194;5.684;2023-05-24T09:53:11;15.57;;;12.00;;
21488;SDS011;10906;45.194;5.684;2023-05-24T09:56:38;15.32;;;12.05;;
21488;SDS011;10906;45.194;5.684;2023-05-24T09:59:23;17.60;;;12.75;;
21488;SDS011;10906;45.194;5.684;2023-05-24T10:02:08;13.98;;;12.25;;
21488;SDS011;10906;45.194;5.684;2023-05-24T10:04:58;15.90;;;12.93;;
21488;SDS011;10906;45.194;5.684;2023-05-24T10:07:43;14.85;;;12.65;;
21488;SDS011;10906;45.194;5.684;2023-05-24T10:10:29;13.73;;;12.32;;
21488;SDS011;10906;45.194;5.684;2023-05-24T10:13:16;14.15;;;12.85;;
21488;SDS011;10906;45.194;5.684;2023-05-24T10:16:01;19.58;;;12.93;;
21488;SDS011;10906;45.194;5.684;2023-05-24T10:18:46;16.73;;;12.60;;
21488;SDS011;10906;45.194;5.684;2023-05-24T10:21:31;13.05;;;11.75;;
21488;SDS011;10906;45.194;5.684;2023-05-24T10:24:16;14.43;;;12.40;;
21488;SDS011;10906;45.194;5.684;2023-05-24T10:27:03;17.45;;;11.60;;
21488;SDS011;10906;45.194;5.684;2023-05-24T10:32:44;17.88;;;11.68;;
21488;SDS011;10906;45.194;5.684;2023-05-24T10:35:30;14.05;;;12.07;;
21488;SDS011;10906;45.194;5.684;2023-05-24T10:38:16;14.50;;;12.07;;
21488;SDS011;10906;45.194;5.684;2023-05-24T10:41:05;15.75;;;12.93;;
21488;SDS011;10906;45.194;5.684;2023-05-24T10:43:50;12.70;;;11.40;;
21488;SDS011;10906;45.194;5.684;2023-05-24T10:46:39;13.90;;;11.35;;
21488;SDS011;10906;45.194;5.684;2023-05-24T10:49:54;13.88;;;12.40;;
21488;SDS011;10906;45.194;5.684;2023-05-24T10:52:50;11.80;;;10.60;;
21488;SDS011;10906;45.194;5.684;2023-05-24T10:55:34;13.68;;;12.27;;
21488;SDS011;10906;45.194;5.684;2023-05-24T10:58:21;13.50;;;11.82;;
21488;SDS011;10906;45.194;5.684;2023-05-24T11:01:13;14.23;;;12.45;;
21488;SDS011;10906;45.194;5.684;2023-05-24T11:04:15;16.95;;;12.52;;
21488;SDS011;10906;45.194;5.684;2023-05-24T11:07:04;15.50;;;13.07;;
21488;SDS011;10906;45.194;5.684;2023-05-24T11:09:54;15.13;;;13.00;;
21488;SDS011;10906;45.194;5.684;2023-05-24T11:12:40;15.73;;;13.45;;
21488;SDS011;10906;45.194;5.684;2023-05-24T11:15:25;14.35;;;12.85;;
21488;SDS011;10906;45.194;5.684;2023-05-24T11:18:14;15.85;;;13.82;;
21488;SDS011;10906;45.194;5.684;2023-05-24T11:20:58;18.80;;;13.32;;
21488;SDS011;10906;45.194;5.684;2023-05-24T11:23:47;16.17;;;13.60;;
21488;SDS011;10906;45.194;5.684;2023-05-24T11:26:32;14.20;;;12.77;;
21488;SDS011;10906;45.194;5.684;2023-05-24T11:29:16;15.93;;;13.55;;
21488;SDS011;10906;45.194;5.684;2023-05-24T11:32:04;14.98;;;13.38;;
21488;SDS011;10906;45.194;5.684;2023-05-24T11:34:50;19.90;;;14.27;;
21488;SDS011;10906;45.194;5.684;2023-05-24T11:37:34;16.83;;;12.93;;
21488;SDS011;10906;45.194;5.684;2023-05-24T11:40:20;17.80;;;13.25;;
21488;SDS011;10906;45.194;5.684;2023-05-24T11:43:05;21.77;;;14.30;;
21488;SDS011;10906;45.194;5.684;2023-05-24T11:45:50;17.67;;;12.95;;
21488;SDS011;10906;45.194;5.684;2023-05-24T11:48:37;17.02;;;15.02;;
21488;SDS011;10906;45.194;5.684;2023-05-24T11:51:38;17.98;;;14.73;;
21488;SDS011;10906;45.194;5.684;2023-05-24T11:54:25;17.15;;;13.75;;
21488;SDS011;10906;45.194;5.684;2023-05-24T11:57:11;21.60;;;14.55;;
21488;SDS011;10906;45.194;5.684;2023-05-24T11:59:58;17.60;;;13.95;;
21488;SDS011;10906;45.194;5.684;2023-05-24T12:02:42;16.38;;;14.07;;
21488;SDS011;10906;45.194;5.684;2023-05-24T12:05:32;17.58;;;14.40;;
21488;SDS011;10906;45.194;5.684;2023-05-24T12:08:22;17.30;;;13.13;;
21488;SDS011;10906;45.194;5.684;2023-05-24T12:11:08;18.85;;;13.88;;
21488;SDS011;10906;45.194;5.684;2023-05-24T12:13:58;16.17;;;13.20;;
21488;SDS011;10906;45.194;5.684;2023-05-24T12:16:43;14.32;;;12.60;;
21488;SDS011;10906;45.194;5.684;2023-05-24T12:19:30;19.42;;;12.60;;
21488;SDS011;10906;45.194;5.684;2023-05-24T12:22:17;16.30;;;13.82;;
21488;SDS011;10906;45.194;5.684;2023-05-24T12:25:02;14.95;;;13.38;;
21488;SDS011;10906;45.194;5.684;2023-05-24T12:27:55;15.70;;;13.27;;
21488;SDS011;10906;45.194;5.684;2023-05-24T12:30:39;17.02;;;13.43;;
21488;SDS011;10906;45.194;5.684;2023-05-24T12:33:27;14.73;;;12.27;;
21488;SDS011;10906;45.194;5.684;2023-05-24T12:36:19;15.93;;;13.77;;
21488;SDS011;10906;45.194;5.684;2023-05-24T12:39:20;15.13;;;12.70;;
21488;SDS011;10906;45.194;5.684;2023-05-24T12:42:18;17.63;;;12.73;;
21488;SDS011;10906;45.194;5.684;2023-05-24T12:45:09;15.15;;;12.65;;
21488;SDS011;10906;45.194;5.684;2023-05-24T12:47:58;15.68;;;13.15;;
21488;SDS011;10906;45.194;5.684;2023-05-24T12:50:48;15.23;;;12.77;;
21488;SDS011;10906;45.194;5.684;2023-05-24T12:53:34;15.05;;;12.27;;
21488;SDS011;10906;45.194;5.684;2023-05-24T12:56:22;15.02;;;13.30;;
21488;SDS011;10906;45.194;5.684;2023-05-24T12:59:18;15.67;;;13.90;;
21488;SDS011;10906;45.194;5.684;2023-05-24T13:02:02;16.05;;;14.07;;
21488;SDS011;10906;45.194;5.684;2023-05-24T13:04:49;19.50;;;13.60;;
21488;SDS011;10906;45.194;5.684;2023-05-24T13:07:37;18.10;;;14.10;;
21488;SDS011;10906;45.194;5.684;2023-05-24T13:10:28;18.17;;;14.05;;
21488;SDS011;10906;45.194;5.684;2023-05-24T13:13:15;18.20;;;13.95;;
21488;SDS011;10906;45.194;5.684;2023-05-24T13:16:03;18.05;;;14.55;;
21488;SDS011;10906;45.194;5.684;2023-05-24T13:18:52;15.70;;;14.05;;
21488;SDS011;10906;45.194;5.684;2023-05-24T13:21:36;17.80;;;14.95;;
21488;SDS011;10906;45.194;5.684;2023-05-24T13:24:21;17.60;;;14.77;;
21488;SDS011;10906;45.194;5.684;2023-05-24T13:27:06;17.30;;;13.85;;
21488;SDS011;10906;45.194;5.684;2023-05-24T13:29:51;18.27;;;14.05;;
21488;SDS011;10906;45.194;5.684;2023-05-24T13:32:43;18.80;;;15.90;;
21488;SDS011;10906;45.194;5.684;2023-05-24T13:35:28;19.77;;;15.73;;
21488;SDS011;10906;45.194;5.684;2023-05-24T13:38:13;17.30;;;15.13;;
21488;SDS011;10906;45.194;5.684;2023-05-24T13:40:58;16.80;;;14.27;;
21488;SDS011;10906;45.194;5.684;2023-05-24T13:43:43;18.52;;;15.07;;
21488;SDS011;10906;45.194;5.684;2023-05-24T13:46:31;18.45;;;15.23;;
21488;SDS011;10906;45.194;5.684;2023-05-24T13:49:16;20.60;;;15.38;;
21488;SDS011;10906;45.194;5.684;2023-05-24T13:52:01;17.02;;;14.65;;
21488;SDS011;10906;45.194;5.684;2023-05-24T13:54:46;19.65;;;16.42;;
21488;SDS011;10906;45.194;5.684;2023-05-24T13:57:31;17.63;;;15.43;;
21488;SDS011;10906;45.194;5.684;2023-05-24T14:00:19;18.20;;;15.13;;
21488;SDS011;10906;45.194;5.684;2023-05-24T14:03:14;16.60;;;14.90;;
21488;SDS011;10906;45.194;5.684;2023-05-24T14:06:01;20.80;;;14.00;;
21488;SDS011;10906;45.194;5.684;2023-05-24T14:08:48;16.80;;;14.50;;
21488;SDS011;10906;45.194;5.684;2023-05-24T14:11:33;15.02;;;13.40;;
21488;SDS011;10906;45.194;5.684;2023-05-24T14:14:18;19.13;;;13.27;;
21488;SDS011;10906;45.194;5.684;2023-05-24T14:17:02;15.80;;;14.02;;
21488;SDS011;10906;45.194;5.684;2023-05-24T14:19:47;18.98;;;14.10;;
21488;SDS011;10906;45.194;5.684;2023-05-24T14:22:34;17.98;;;13.82;;
21488;SDS011;10906;45.194;5.684;2023-05-24T14:25:18;15.63;;;13.65;;
21488;SDS011;10906;45.194;5.684;2023-05-24T14:28:03;20.52;;;13.70;;
21488;SDS011;10906;45.194;5.684;2023-05-24T14:30:47;17.40;;;14.07;;
21488;SDS011;10906;45.194;5.684;2023-05-24T14:33:32;15.82;;;14.13;;
21488;SDS011;10906;45.194;5.684;2023-05-24T14:36:17;15.43;;;12.95;;
21488;SDS011;10906;45.194;5.684;2023-05-24T14:39:01;16.25;;;13.80;;
21488;SDS011;10906;45.194;5.684;2023-05-24T14:41:46;17.30;;;14.10;;
21488;SDS011;10906;45.194;5.684;2023-05-24T14:44:30;15.73;;;13.50;;
21488;SDS011;10906;45.194;5.684;2023-05-24T14:47:15;17.55;;;13.10;;
21488;SDS011;10906;45.194;5.684;2023-05-24T14:49:59;15.32;;;13.70;;
21488;SDS011;10906;45.194;5.684;2023-05-24T14:52:44;15.50;;;13.23;;
21488;SDS011;10906;45.194;5.684;2023-05-24T14:55:28;15.80;;;13.73;;
21488;SDS011;10906;45.194;5.684;2023-05-24T14:58:13;16.30;;;13.80;;
21488;SDS011;10906;45.194;5.684;2023-05-24T15:00:58;16.52;;;13.13;;
21488;SDS011;10906;45.194;5.684;2023-05-24T15:03:43;16.80;;;13.45;;
21488;SDS011;10906;45.194;5.684;2023-05-24T15:06:28;15.70;;;12.70;;
21488;SDS011;10906;45.194;5.684;2023-05-24T15:09:17;18.52;;;13.35;;
21488;SDS011;10906;45.194;5.684;2023-05-24T15:12:02;16.65;;;13.05;;
21488;SDS011;10906;45.194;5.684;2023-05-24T15:14:47;16.50;;;12.48;;
21488;SDS011;10906;45.194;5.684;2023-05-24T15:17:32;13.50;;;10.90;;
21488;SDS011;10906;45.194;5.684;2023-05-24T15:20:16;13.55;;;11.57;;
21488;SDS011;10906;45.194;5.684;2023-05-24T15:23:01;16.45;;;10.90;;
21488;SDS011;10906;45.194;5.684;2023-05-24T15:25:46;12.27;;;10.55;;
21488;SDS011;10906;45.194;5.684;2023-05-24T15:28:30;15.75;;;11.23;;
21488;SDS011;10906;45.194;5.684;2023-05-24T15:31:15;13.25;;;10.30;;
21488;SDS011;10906;45.194;5.684;2023-05-24T15:34:00;12.45;;;10.07;;
21488;SDS011;10906;45.194;5.684;2023-05-24T15:36:47;13.13;;;10.60;;
21488;SDS011;10906;45.194;5.684;2023-05-24T15:39:31;12.05;;;9.98;;
21488;SDS011;10906;45.194;5.684;2023-05-24T15:42:17;12.57;;;10.77;;
21488;SDS011;10906;45.194;5.684;2023-05-24T15:45:05;16.05;;;11.05;;
21488;SDS011;10906;45.194;5.684;2023-05-24T15:47:51;16.23;;;11.07;;
21488;SDS011;10906;45.194;5.684;2023-05-24T15:50:38;16.08;;;11.15;;
21488;SDS011;10906;45.194;5.684;2023-05-24T15:53:23;11.77;;;10.57;;
21488;SDS011;10906;45.194;5.684;2023-05-24T15:56:08;14.05;;;10.85;;
21488;SDS011;10906;45.194;5.684;2023-05-24T15:58:53;15.95;;;11.90;;
21488;SDS011;10906;45.194;5.684;2023-05-24T16:01:37;12.45;;;10.73;;
21488;SDS011;10906;45.194;5.684;2023-05-24T16:04:25;15.40;;;11.23;;
21488;SDS011;10906;45.194;5.684;2023-05-24T16:07:19;11.40;;;10.30;;
21488;SDS011;10906;45.194;5.684;2023-05-24T16:10:04;15.15;;;10.40;;
21488;SDS011;10906;45.194;5.684;2023-05-24T16:12:58;14.55;;;10.02;;
21488;SDS011;10906;45.194;5.684;2023-05-24T16:15:46;14.07;;;10.43;;
21488;SDS011;10906;45.194;5.684;2023-05-24T16:18:34;12.93;;;10.43;;
21488;SDS011;10906;45.194;5.684;2023-05-24T16:21:22;13.98;;;10.13;;
21488;SDS011;10906;45.194;5.684;2023-05-24T16:24:08;13.60;;;10.93;;
21488;SDS011;10906;45.194;5.684;2023-05-24T16:27:03;14.30;;;11.95;;
21488;SDS011;10906;45.194;5.684;2023-05-24T16:29:47;15.25;;;11.32;;
21488;SDS011;10906;45.194;5.684;2023-05-24T16:32:39;13.00;;;11.07;;
21488;SDS011;10906;45.194;5.684;2023-05-24T16:35:27;14.05;;;11.25;;
21488;SDS011;10906;45.194;5.684;2023-05-24T16:38:16;14.50;;;12.07;;
21488;SDS011;10906;45.194;5.684;2023-05-24T16:41:05;17.65;;;12.20;;
21488;SDS011;10906;45.194;5.684;2023-05-24T16:43:52;15.13;;;11.65;;
21488;SDS011;10906;45.194;5.684;2023-05-24T16:46:36;15.32;;;11.00;;
21488;SDS011;10906;45.194;5.684;2023-05-24T16:49:23;13.27;;;11.80;;
21488;SDS011;10906;45.194;5.684;2023-05-24T16:52:16;13.45;;;11.70;;
21488;SDS011;10906;45.194;5.684;2023-05-24T16:55:00;12.63;;;11.15;;
21488;SDS011;10906;45.194;5.684;2023-05-24T16:57:44;13.40;;;11.15;;
21488;SDS011;10906;45.194;5.684;2023-05-24T17:00:34;16.75;;;11.93;;
21488;SDS011;10906;45.194;5.684;2023-05-24T17:03:29;14.32;;;10.82;;
21488;SDS011;10906;45.194;5.684;2023-05-24T17:06:17;14.57;;;12.00;;
21488;SDS011;10906;45.194;5.684;2023-05-24T17:09:04;16.17;;;11.13;;
21488;SDS011;10906;45.194;5.684;2023-05-24T17:12:00;14.70;;;11.50;;
21488;SDS011;10906;45.194;5.684;2023-05-24T17:14:44;15.15;;;11.05;;
21488;SDS011;10906;45.194;5.684;2023-05-24T17:17:29;12.63;;;10.93;;
21488;SDS011;10906;45.194;5.684;2023-05-24T17:20:16;14.68;;;11.60;;
21488;SDS011;10906;45.194;5.684;2023-05-24T17:23:00;14.05;;;11.20;;
21488;SDS011;10906;45.194;5.684;2023-05-24T17:25:45;13.65;;;11.20;;
21488;SDS011;10906;45.194;5.684;2023-05-24T17:28:30;13.40;;;11.73;;
21488;SDS011;10906;45.194;5.684;2023-05-24T17:31:19;17.95;;;12.15;;
21488;SDS011;10906;45.194;5.684;2023-05-24T17:34:06;16.50;;;12.45;;
21488;SDS011;10906;45.194;5.684;2023-05-24T17:36:53;16.50;;;14.40;;
21488;SDS011;10906;45.194;5.684;2023-05-24T17:39:44;21.95;;;13.75;;
21488;SDS011;10906;45.194;5.684;2023-05-24T17:42:29;16.85;;;14.10;;
21488;SDS011;10906;45.194;5.684;2023-05-24T17:45:14;19.67;;;14.40;;
21488;SDS011;10906;45.194;5.684;2023-05-24T17:47:58;14.90;;;13.25;;
21488;SDS011;10906;45.194;5.684;2023-05-24T17:50:43;15.68;;;12.98;;
21488;SDS011;10906;45.194;5.684;2023-05-24T17:53:28;19.10;;;13.15;;
21488;SDS011;10906;45.194;5.684;2023-05-24T17:56:14;15.07;;;12.98;;
21488;SDS011;10906;45.194;5.684;2023-05-24T17:58:59;14.70;;;12.25;;
21488;SDS011;10906;45.194;5.684;2023-05-24T18:01:45;16.05;;;11.77;;
21488;SDS011;10906;45.194;5.684;2023-05-24T18:04:29;15.85;;;11.88;;
21488;SDS011;10906;45.194;5.684;2023-05-24T18:07:15;14.23;;;11.82;;
21488;SDS011;10906;45.194;5.684;2023-05-24T18:10:01;14.85;;;12.05;;
21488;SDS011;10906;45.194;5.684;2023-05-24T18:12:46;14.73;;;11.80;;
21488;SDS011;10906;45.194;5.684;2023-05-24T18:15:31;15.93;;;12.00;;
21488;SDS011;10906;45.194;5.684;2023-05-24T18:18:18;17.33;;;12.68;;
21488;SDS011;10906;45.194;5.684;2023-05-24T18:21:03;16.48;;;12.85;;
21488;SDS011;10906;45.194;5.684;2023-05-24T18:23:48;14.23;;;11.48;;
21488;SDS011;10906;45.194;5.684;2023-05-24T18:26:33;14.77;;;12.10;;
21488;SDS011;10906;45.194;5.684;2023-05-24T18:29:17;14.85;;;12.25;;
21488;SDS011;10906;45.194;5.684;2023-05-24T18:32:02;13.13;;;10.85;;
21488;SDS011;10906;45.194;5.684;2023-05-24T18:34:46;15.82;;;11.15;;
21488;SDS011;10906;45.194;5.684;2023-05-24T18:37:32;16.00;;;11.57;;
21488;SDS011;10906;45.194;5.684;2023-05-24T18:40:16;15.55;;;10.88;;
21488;SDS011;10906;45.194;5.684;2023-05-24T18:43:01;14.05;;;11.00;;
21488;SDS011;10906;45.194;5.684;2023-05-24T18:45:48;15.35;;;11.68;;
21488;SDS011;10906;45.194;5.684;2023-05-24T18:48:35;12.88;;;10.68;;
21488;SDS011;10906;45.194;5.684;2023-05-24T18:51:27;16.70;;;11.55;;
21488;SDS011;10906;45.194;5.684;2023-05-24T18:54:12;11.82;;;10.40;;
21488;SDS011;10906;45.194;5.684;2023-05-24T18:56:57;13.85;;;11.55;;
21488;SDS011;10906;45.194;5.684;2023-05-24T18:59:55;11.88;;;10.20;;
21488;SDS011;10906;45.194;5.684;2023-05-24T19:02:42;15.18;;;10.90;;
21488;SDS011;10906;45.194;5.684;2023-05-24T19:05:34;14.43;;;10.38;;
21488;SDS011;10906;45.194;5.684;2023-05-24T19:08:19;16.10;;;11.68;;
21488;SDS011;10906;45.194;5.684;2023-05-24T19:14:18;12.15;;;10.32;;
21488;SDS011;10906;45.194;5.684;2023-05-24T19:17:07;13.23;;;10.93;;
21488;SDS011;10906;45.194;5.684;2023-05-24T19:19:52;14.88;;;11.10;;
21488;SDS011;10906;45.194;5.684;2023-05-24T19:22:45;14.02;;;10.27;;
21488;SDS011;10906;45.194;5.684;2023-05-24T19:25:30;13.85;;;10.18;;
21488;SDS011;10906;45.194;5.684;2023-05-24T19:28:25;16.20;;;10.88;;
21488;SDS011;10906;45.194;5.684;2023-05-24T19:31:09;15.50;;;11.57;;
21488;SDS011;10906;45.194;5.684;2023-05-24T19:33:56;15.77;;;11.80;;
21488;SDS011;10906;45.194;5.684;2023-05-24T19:36:52;12.93;;;10.57;;
21488;SDS011;10906;45.194;5.684;2023-05-24T19:39:44;13.98;;;10.68;;
21488;SDS011;10906;45.194;5.684;2023-05-24T19:42:28;16.42;;;11.52;;
21488;SDS011;10906;45.194;5.684;2023-05-24T19:45:13;16.38;;;13.07;;
21488;SDS011;10906;45.194;5.684;2023-05-24T19:47:58;19.65;;;12.30;;
21488;SDS011;10906;45.194;5.684;2023-05-24T19:50:45;15.38;;;12.57;;
21488;SDS011;10906;45.194;5.684;2023-05-24T19:53:29;17.08;;;12.20;;
21488;SDS011;10906;45.194;5.684;2023-05-24T19:56:17;13.43;;;11.82;;
21488;SDS011;10906;45.194;5.684;2023-05-24T19:59:12;16.63;;;12.13;;
21488;SDS011;10906;45.194;5.684;2023-05-24T20:01:59;16.80;;;12.40;;
21488;SDS011;10906;45.194;5.684;2023-05-24T20:04:54;14.35;;;11.38;;
21488;SDS011;10906;45.194;5.684;2023-05-24T20:07:38;12.48;;;9.95;;
21488;SDS011;10906;45.194;5.684;2023-05-24T20:10:23;14.30;;;10.13;;
21488;SDS011;10906;45.194;5.684;2023-05-24T20:13:18;15.68;;;10.88;;
21488;SDS011;10906;45.194;5.684;2023-05-24T20:16:06;14.13;;;10.07;;
21488;SDS011;10906;45.194;5.684;2023-05-24T20:18:51;14.18;;;10.55;;
21488;SDS011;10906;45.194;5.684;2023-05-24T20:21:38;12.13;;;10.23;;
21488;SDS011;10906;45.194;5.684;2023-05-24T20:24:32;14.40;;;10.02;;
21488;SDS011;10906;45.194;5.684;2023-05-24T20:27:19;13.25;;;10.25;;
21488;SDS011;10906;45.194;5.684;2023-05-24T20:30:13;15.60;;;11.10;;
21488;SDS011;10906;45.194;5.684;2023-05-24T20:33:00;11.77;;;10.25;;
21488;SDS011;10906;45.194;5.684;2023-05-24T20:35:52;15.32;;;9.63;;
21488;SDS011;10906;45.194;5.684;2023-05-24T20:38:39;13.05;;;10.05;;
21488;SDS011;10906;45.194;5.684;2023-05-24T20:41:31;13.07;;;9.95;;
21488;SDS011;10906;45.194;5.684;2023-05-24T20:44:16;11.75;;;9.50;;
21488;SDS011;10906;45.194;5.684;2023-05-24T20:47:09;14.02;;;10.50;;
21488;SDS011;10906;45.194;5.684;2023-05-24T20:49:56;13.40;;;9.63;;
21488;SDS011;10906;45.194;5.684;2023-05-24T20:52:43;15.52;;;9.20;;
21488;SDS011;10906;45.194;5.684;2023-05-24T20:55:28;13.40;;;9.88;;
21488;SDS011;10906;45.194;5.684;2023-05-24T20:58:22;12.95;;;9.50;;
21488;SDS011;10906;45.194;5.684;2023-05-24T21:04:17;14.75;;;9.75;;
21488;SDS011;10906;45.194;5.684;2023-05-24T21:07:10;10.10;;;8.83;;
21488;SDS011;10906;45.194;5.684;2023-05-24T21:09:55;14.77;;;9.45;;
21488;SDS011;10906;45.194;5.684;2023-05-24T21:12:48;12.20;;;9.15;;
21488;SDS011;10906;45.194;5.684;2023-05-24T21:15:34;12.55;;;8.77;;
21488;SDS011;10906;45.194;5.684;2023-05-24T21:18:19;12.98;;;9.45;;
21488;SDS011;10906;45.194;5.684;2023-05-24T21:21:04;10.77;;;8.20;;
21488;SDS011;10906;45.194;5.684;2023-05-24T21:23:51;11.43;;;8.88;;
21488;SDS011;10906;45.194;5.684;2023-05-24T21:26:46;12.13;;;8.70;;
21488;SDS011;10906;45.194;5.684;2023-05-24T21:29:30;10.90;;;8.88;;
21488;SDS011;10906;45.194;5.684;2023-05-24T21:32:15;15.85;;;8.65;;
21488;SDS011;10906;45.194;5.684;2023-05-24T21:35:11;10.85;;;8.27;;
21488;SDS011;10906;45.194;5.684;2023-05-24T21:37:56;10.80;;;9.18;;
21488;SDS011;10906;45.194;5.684;2023-05-24T21:40:43;13.70;;;8.55;;
21488;SDS011;10906;45.194;5.684;2023-05-24T21:43:57;10.18;;;8.02;;